Time;durP1;ratioP1;P1;durP2;ratioP2;P2;SDS_P1;SDS_P2;PMS_P1;PMS_P2;Temp;Humidity;BMP_temperature;BMP_pressure;BME280_temperature;BME280_humidity;BME280_pressure;Samples;Min_cycle;Max_cycle;Signal;HPM_P1;HPM_P2
2022/03/24 00:01:35;;;;;;;;;;;;;;;7.34;59.61;100748.56;4446052;32;19985;-94
2022/03/24 00:04:00;;;;;;;;;;;;;;;7.30;59.61;100747.69;4445743;32;20012;-94
2022/03/24 00:06:25;;;;;;;;;;;;;;;7.21;59.60;100747.72;4445519;32;20612;-96
2022/03/24 00:08:50;;;;;;;;;;;;;;;7.21;59.61;100745.13;4445460;32;19999;-94
2022/03/24 00:11:17;;;;;;;;;;;;;;;7.30;59.60;100741.63;4445610;32;20024;-95
2022/03/24 00:13:42;;;;;;;;;;;;;;;7.32;59.61;100740.75;4445830;32;20007;-96
2022/03/24 00:16:08;;;;;;;;;;;;;;;7.32;59.61;100743.34;4445570;32;20004;-95
2022/03/24 00:18:34;;;;;;;;;;;;;;;7.28;59.61;100738.19;4447916;32;19993;-96
2022/03/24 00:21:00;;;;;;;;;;;;;;;7.32;59.61;100730.41;4461356;32;20021;-96
2022/03/24 00:23:28;;;;;;;;;;;;;;;7.29;59.61;100722.66;4450297;32;19989;-96
2022/03/24 00:25:53;;;;;;;;;;;;;;;7.23;59.60;100724.41;4459471;32;20003;-96
2022/03/24 00:28:18;;;;;;;;;;;;;;;7.02;59.59;100717.53;4447281;32;20021;-95
2022/03/24 00:30:44;;;;;;;;;;;;;;;6.81;59.59;100715.00;4450900;32;19990;-95
2022/03/24 00:33:10;;;;;;;;;;;;;;;7.17;59.61;100711.47;4448106;32;19988;-95
2022/03/24 00:35:37;;;;;;;;;;;;;;;6.73;59.58;100715.88;4447005;32;19993;-96
2022/03/24 00:38:02;;;;;;;;;;;;;;;6.60;59.57;100713.28;4447389;32;20048;-95
2022/03/24 00:40:27;;;;;;;;;;;;;;;6.59;59.57;100699.47;4445370;32;20246;-96
2022/03/24 00:42:53;;;;;;;;;;;;;;;6.62;59.56;100698.63;4445762;32;19984;-94
2022/03/24 00:45:18;;;;;;;;;;;;;;;6.68;59.57;100696.03;4445031;32;20018;-93
2022/03/24 00:47:44;;;;;;;;;;;;;;;6.63;59.56;100701.22;4444924;32;19977;-94
2022/03/24 00:50:10;;;;;;;;;;;;;;;6.78;59.57;100695.16;4445438;32;20241;-94
2022/03/24 00:52:41;;;;;;;;;;;;;;;6.88;59.59;100704.66;4461012;32;19992;-96
2022/03/24 00:55:24;;;;;;;;;;;;;;;6.80;59.59;100690.84;4448206;32;19957;-95
2022/03/24 00:57:49;;;;;;;;;;;;;;;6.76;59.58;100687.41;4448576;32;19949;-95
2022/03/24 01:00:15;;;;;;;;;;;;;;;6.71;59.57;100693.44;4448096;32;20030;-95
2022/03/24 01:02:41;;;;;;;;;;;;;;;6.63;59.57;100687.44;4460935;32;20003;-95
2022/03/24 01:05:07;;;;;;;;;;;;;;;6.87;59.58;100683.94;4446690;32;20325;-95
2022/03/24 01:07:32;;;;;;;;;;;;;;;6.77;59.57;100672.72;4445269;32;20328;-94
2022/03/24 01:09:57;;;;;;;;;;;;;;;6.79;59.59;100671.00;4445398;32;20014;-96
2022/03/24 01:12:22;;;;;;;;;;;;;;;6.93;59.59;100673.56;4445166;32;20016;-95
2022/03/24 01:14:48;;;;;;;;;;;;;;;6.84;59.58;100668.41;4465623;32;19988;-96
2022/03/24 01:17:16;;;;;;;;;;;;;;;6.72;59.58;100677.06;4446263;32;19994;-94
2022/03/24 01:19:41;;;;;;;;;;;;;;;6.73;59.58;100669.28;4446750;32;19980;-95
2022/03/24 01:22:07;;;;;;;;;;;;;;;6.63;59.57;100666.75;4447363;32;20028;-96
2022/03/24 01:24:32;;;;;;;;;;;;;;;6.70;59.57;100673.63;4448522;32;20016;-95
2022/03/24 01:26:59;;;;;;;;;;;;;;;6.75;59.58;100656.34;4457827;32;19995;-94
2022/03/24 01:29:24;;;;;;;;;;;;;;;6.76;59.57;100660.66;4444433;32;19981;-95
2022/03/24 01:31:49;;;;;;;;;;;;;;;6.86;59.58;100656.31;4444417;32;20056;-93
2022/03/24 01:34:16;;;;;;;;;;;;;;;6.80;59.59;100652.03;4443297;32;20008;-94
2022/03/24 01:36:42;;;;;;;;;;;;;;;6.77;59.57;100647.72;4445471;32;20036;-95
2022/03/24 01:39:08;;;;;;;;;;;;;;;6.76;59.58;100650.31;4444329;32;20246;-91
2022/03/24 01:41:33;;;;;;;;;;;;;;;6.67;59.57;100658.09;4456874;32;20722;-90
2022/03/24 01:43:59;;;;;;;;;;;;;;;6.73;59.59;100647.72;4443037;32;20015;-90
2022/03/24 01:46:24;;;;;;;;;;;;;;;6.84;59.59;100651.16;4443124;32;20015;-90
2022/03/24 01:48:50;;;;;;;;;;;;;;;6.66;59.58;100648.62;4443202;32;20063;-91
2022/03/24 01:51:15;;;;;;;;;;;;;;;6.54;59.57;100643.44;4442993;32;19988;-90
2022/03/24 01:53:40;;;;;;;;;;;;;;;6.54;59.56;100648.62;4443730;32;20021;-91
2022/03/24 01:56:07;;;;;;;;;;;;;;;6.38;59.56;100642.59;4443381;32;20070;-91
2022/03/24 01:58:32;;;;;;;;;;;;;;;6.37;59.56;100640.87;4443640;32;20014;-91
2022/03/24 02:01:00;;;;;;;;;;;;;;;6.31;59.55;100640.87;4443530;32;20000;-91
2022/03/24 02:03:26;;;;;;;;;;;;;;;6.39;59.55;100637.44;4443911;32;20352;-93
2022/03/24 02:05:51;;;;;;;;;;;;;;;6.42;59.56;100637.44;4444203;32;19981;-92
2022/03/24 02:08:16;;;;;;;;;;;;;;;6.44;59.56;100632.25;4444075;32;20000;-93
2022/03/24 02:10:41;;;;;;;;;;;;;;;6.32;59.55;100627.94;4444027;32;19993;-93
2022/03/24 02:13:08;;;;;;;;;;;;;;;6.29;59.56;100629.69;4444127;32;20323;-93
2022/03/24 02:15:34;;;;;;;;;;;;;;;6.32;59.55;100630.53;4443865;32;19995;-92
2022/03/24 02:17:59;;;;;;;;;;;;;;;6.37;59.55;100623.63;4443780;32;20017;-93
2022/03/24 02:20:28;;;;;;;;;;;;;;;6.38;59.55;100622.78;4443793;32;20348;-92
2022/03/24 02:22:53;;;;;;;;;;;;;;;6.42;59.56;100621.94;4454684;32;19988;-96
2022/03/24 02:25:19;;;;;;;;;;;;;;;6.32;59.55;100622.78;4466949;32;19995;-96
2022/03/24 02:27:47;;;;;;;;;;;;;;;6.48;59.56;100618.47;4454747;32;19983;-96
2022/03/24 02:33:25;;;;;;;;;;;;;;;6.64;59.58;100619.31;4468471;32;19965;-96
2022/03/24 02:36:22;;;;;;;;;;;;;;;6.71;59.56;100616.69;4465672;32;19954;-96
2022/03/24 02:39:01;;;;;;;;;;;;;;;6.91;59.58;100613.19;4469483;32;19953;-94
2022/03/24 02:42:06;;;;;;;;;;;;;;;7.18;59.60;100620.84;4446253;32;19953;-96
2022/03/24 02:44:54;;;;;;;;;;;;;;;7.12;59.60;100620.88;4470761;32;19957;-96
2022/03/24 02:47:40;;;;;;;;;;;;;;;7.11;59.60;100615.72;4423956;32;19964;-96
2022/03/24 02:53:12;;;;;;;;;;;;;;;7.25;59.61;100614.75;4467777;32;20013;-96
2022/03/24 02:55:46;;;;;;;;;;;;;;;7.31;59.60;100616.47;4468759;32;19949;-96
2022/03/24 02:58:31;;;;;;;;;;;;;;;6.99;59.59;100611.44;4469069;32;19945;-96
2022/03/24 03:04:51;;;;;;;;;;;;;;;7.22;59.60;100614.78;4471006;32;19992;-96
2022/03/24 03:08:02;;;;;;;;;;;;;;;6.95;59.59;100617.50;4471727;32;19984;-96
2022/03/24 03:10:36;;;;;;;;;;;;;;;7.07;59.59;100614.84;4408610;32;19970;-96
2022/03/24 03:13:02;;;;;;;;;;;;;;;7.26;59.60;100607.84;4398849;32;20042;-92
2022/03/24 03:15:27;;;;;;;;;;;;;;;7.32;59.61;100607.81;4442047;32;20016;-93
2022/03/24 03:17:53;;;;;;;;;;;;;;;7.39;59.61;100604.34;4443585;32;20314;-94
2022/03/24 03:20:18;;;;;;;;;;;;;;;7.56;59.63;100597.31;4442110;32;19997;-91
2022/03/24 03:22:43;;;;;;;;;;;;;;;7.52;59.62;100595.63;4443037;32;19992;-94
2022/03/24 03:25:09;;;;;;;;;;;;;;;7.62;59.63;100593.84;4442822;32;20003;-93
2022/03/24 03:27:35;;;;;;;;;;;;;;;7.65;59.63;100597.28;4443086;32;20027;-94
2022/03/24 03:30:00;;;;;;;;;;;;;;;7.65;59.63;100589.50;4456225;32;20009;-92
2022/03/24 03:32:25;;;;;;;;;;;;;;;7.67;59.62;100594.69;4442445;32;20322;-93
2022/03/24 03:34:50;;;;;;;;;;;;;;;7.73;59.63;100591.19;4442607;32;19989;-95
2022/03/24 03:37:16;;;;;;;;;;;;;;;7.79;59.64;100591.97;4445859;32;20066;-94
2022/03/24 03:39:41;;;;;;;;;;;;;;;7.68;59.62;100591.22;4445982;32;19999;-94
2022/03/24 03:42:08;;;;;;;;;;;;;;;7.75;59.64;100594.62;4446141;32;20016;-96
2022/03/24 03:44:34;;;;;;;;;;;;;;;7.78;59.63;100585.09;4458474;32;19996;-94
2022/03/24 03:47:01;;;;;;;;;;;;;;;7.88;59.64;100575.53;4445746;32;19992;-94
2022/03/24 03:49:26;;;;;;;;;;;;;;;7.78;59.64;100584.22;4445379;32;20024;-94
2022/03/24 03:51:52;;;;;;;;;;;;;;;7.64;59.62;100585.19;4445343;32;19961;-93
2022/03/24 03:54:17;;;;;;;;;;;;;;;7.73;59.63;100583.41;4445715;32;20333;-93
2022/03/24 03:59:40;;;;;;;;;;;;;;;7.72;59.63;100584.28;4484517;32;20035;-96
2022/03/24 04:02:06;;;;;;;;;;;;;;;7.60;59.62;100583.50;4478502;32;19969;-96
2022/03/24 04:04:32;;;;;;;;;;;;;;;7.54;59.61;100580.06;4452475;32;20037;-96
2022/03/24 04:07:22;;;;;;;;;;;;;;;7.56;59.62;100579.19;4454047;32;20728;-96
2022/03/24 04:09:53;;;;;;;;;;;;;;;7.53;59.63;100574.03;4475574;32;19953;-96
2022/03/24 04:12:19;;;;;;;;;;;;;;;7.46;59.62;100577.53;4469624;32;19991;-96
2022/03/24 04:14:44;;;;;;;;;;;;;;;7.37;59.61;100575.00;4466247;32;19965;-96
2022/03/24 04:17:10;;;;;;;;;;;;;;;7.28;59.60;100581.09;4452408;32;20010;-96
2022/03/24 04:19:37;;;;;;;;;;;;;;;7.20;59.60;100582.00;4468236;32;19995;-96
2022/03/24 04:22:02;;;;;;;;;;;;;;;7.05;59.59;100585.50;4460314;32;19976;-96
2022/03/24 04:24:27;;;;;;;;;;;;;;;7.01;59.58;100587.25;4447765;32;20004;-96
2022/03/24 04:26:53;;;;;;;;;;;;;;;7.12;59.60;100586.37;4447819;32;20093;-96
2022/03/24 04:29:18;;;;;;;;;;;;;;;7.15;59.59;100584.62;4448219;32;19977;-95
2022/03/24 04:31:43;;;;;;;;;;;;;;;7.20;59.60;100580.28;4430035;32;19995;-93
2022/03/24 04:34:09;;;;;;;;;;;;;;;7.19;59.60;100578.56;4429155;32;20007;-95
2022/03/24 04:36:34;;;;;;;;;;;;;;;7.12;59.60;100573.41;4429409;32;20008;-94
2022/03/24 04:39:01;;;;;;;;;;;;;;;7.09;59.60;100574.28;4429405;32;20576;-94
2022/03/24 04:41:26;;;;;;;;;;;;;;;7.20;59.60;100574.22;4442305;32;19958;-94
2022/03/24 04:43:52;;;;;;;;;;;;;;;7.03;59.59;100577.75;4430336;32;19982;-94
2022/03/24 04:46:18;;;;;;;;;;;;;;;7.35;59.61;100574.16;4427235;32;20037;-92
2022/03/24 04:48:44;;;;;;;;;;;;;;;7.26;59.60;100566.44;4440396;32;19981;-93
2022/03/24 04:51:10;;;;;;;;;;;;;;;7.21;59.60;100573.38;4427629;32;19995;-90
2022/03/24 04:53:35;;;;;;;;;;;;;;;7.20;59.60;100575.09;4426884;32;19997;-95
2022/03/24 04:56:00;;;;;;;;;;;;;;;7.24;59.60;100575.94;4428619;32;20293;-93
2022/03/24 04:58:26;;;;;;;;;;;;;;;7.17;59.60;100572.53;4427184;32;20005;-91
2022/03/24 05:00:51;;;;;;;;;;;;;;;7.36;59.61;100570.69;4439273;32;19973;-93
2022/03/24 05:03:16;;;;;;;;;;;;;;;7.60;59.62;100573.13;4426753;32;20001;-92
2022/03/24 05:05:42;;;;;;;;;;;;;;;7.47;59.62;100571.47;4426707;32;20009;-92
2022/03/24 05:08:07;;;;;;;;;;;;;;;7.62;59.63;100568.81;4427025;32;20012;-90
2022/03/24 05:10:32;;;;;;;;;;;;;;;7.69;59.63;100569.63;4453664;32;19982;-93
2022/03/24 05:12:57;;;;;;;;;;;;;;;7.86;59.64;100565.16;4440456;32;20035;-93
2022/03/24 05:15:23;;;;;;;;;;;;;;;7.95;59.64;100566.81;4427086;32;20016;-93
2022/03/24 05:17:49;;;;;;;;;;;;;;;8.14;59.66;100570.97;4427710;32;19993;-92
2022/03/24 05:20:14;;;;;;;;;;;;;;;8.18;59.65;100566.63;4428339;32;19977;-94
2022/03/24 05:22:39;;;;;;;;;;;;;;;8.25;59.66;100569.13;4428611;32;20050;-93
2022/03/24 05:25:05;;;;;;;;;;;;;;;8.38;59.67;100562.13;4429114;32;20003;-93
2022/03/24 05:27:31;;;;;;;;;;;;;;;8.54;59.68;100565.44;4429779;32;20030;-95
2022/03/24 05:29:56;;;;;;;;;;;;;;;8.65;59.68;100568.75;4429619;32;20264;-95
2022/03/24 05:32:22;;;;;;;;;;;;;;;8.81;59.70;100565.13;4442799;32;19989;-95
2022/03/24 05:34:48;;;;;;;;;;;;;;;8.79;59.69;100563.44;4430386;32;20043;-95
2022/03/24 05:37:41;;;;;;;;;;;;;;;9.10;59.71;100562.16;4446559;32;19973;-96
2022/03/24 05:40:12;;;;;;;;;;;;;;;9.17;59.71;100570.72;4448403;32;19957;-95
2022/03/24 05:42:37;;;;;;;;;;;;;;;9.38;59.72;100567.84;4444560;32;20037;-95
2022/03/24 05:45:03;;;;;;;;;;;;;;;9.43;59.73;100560.81;4444802;32;19992;-96
2022/03/24 05:47:28;;;;;;;;;;;;;;;9.18;59.72;100560.31;4429905;32;19985;-95
2022/03/24 05:49:53;;;;;;;;;;;;;;;9.33;59.73;100561.84;4428717;32;20003;-94
2022/03/24 05:52:18;;;;;;;;;;;;;;;9.40;59.73;100563.47;4428697;32;19989;-94
2022/03/24 05:54:54;;;;;;;;;;;;;;;9.53;59.73;100564.16;4428441;32;20317;-92
2022/03/24 05:57:20;;;;;;;;;;;;;;;9.72;59.75;100569.97;4442310;32;19999;-94
2022/03/24 05:59:45;;;;;;;;;;;;;;;9.69;59.73;100568.25;4428508;32;20001;-95
2022/03/24 06:02:10;;;;;;;;;;;;;;;9.65;59.74;100563.97;4428675;32;20015;-94
2022/03/24 06:04:35;;;;;;;;;;;;;;;9.81;59.75;100562.87;4428361;32;19989;-93
2022/03/24 06:07:01;;;;;;;;;;;;;;;9.82;59.74;100561.97;4427944;32;20012;-95
2022/03/24 06:09:26;;;;;;;;;;;;;;;9.88;59.75;100561.00;4428076;32;19976;-94
2022/03/24 06:11:52;;;;;;;;;;;;;;;10.12;59.77;100559.75;4427704;32;19997;-91
2022/03/24 06:14:17;;;;;;;;;;;;;;;10.26;59.77;100556.94;4428330;32;20027;-93
2022/03/24 06:16:43;;;;;;;;;;;;;;;10.66;59.79;100551.88;4430400;32;19981;-93
2022/03/24 06:19:09;;;;;;;;;;;;;;;10.85;59.81;100553.19;4430246;32;20054;-94
2022/03/24 06:21:35;;;;;;;;;;;;;;;10.85;59.81;100552.34;4430023;32;19989;-93
2022/03/24 06:24:00;;;;;;;;;;;;;;;11.03;59.81;100547.59;4429720;32;20030;-94
2022/03/24 06:26:25;;;;;;;;;;;;;;;11.48;59.84;100542.28;4430218;32;20015;-93
2022/03/24 06:28:52;;;;;;;;;;;;;;;11.54;59.85;100541.28;4430012;32;20121;-94
2022/03/24 06:31:18;;;;;;;;;;;;;;;11.78;59.86;100545.03;4429807;32;20341;-94
2022/03/24 06:33:43;;;;;;;;;;;;;;;12.10;59.87;100545.16;4429752;32;20014;-92
2022/03/24 06:36:09;;;;;;;;;;;;;;;12.12;59.88;100538.16;4429325;32;20001;-93
2022/03/24 06:38:34;;;;;;;;;;;;;;;12.27;59.89;100537.72;4442664;32;19973;-93
2022/03/24 06:41:00;;;;;;;;;;;;;;;12.43;59.90;100537.31;4429209;32;20009;-93
2022/03/24 06:43:25;;;;;;;;;;;;;;;12.56;59.90;100529.13;4429100;32;20252;-92
2022/03/24 06:45:51;;;;;;;;;;;;;;;12.84;59.91;100528.34;4428974;32;19980;-93
2022/03/24 06:48:18;;;;;;;;;;;;;;;12.99;59.92;100527.88;4429453;32;19993;-93
2022/03/24 06:50:44;;;;;;;;;;;;;;;13.41;59.95;100525.75;4429064;32;20335;-93
2022/03/24 06:53:09;;;;;;;;;;;;;;;13.50;59.95;100529.88;4429391;32;20050;-94
2022/03/24 06:55:34;;;;;;;;;;;;;;;13.91;59.98;100530.28;4428944;32;20027;-93
2022/03/24 06:58:00;;;;;;;;;;;;;;;14.23;59.99;100519.59;4429562;32;20022;-93
2022/03/24 07:00:25;;;;;;;;;;;;;;;14.46;60.01;100531.03;4429731;32;20003;-94
2022/03/24 07:02:51;;;;;;;;;;;;;;;14.63;60.02;100528.66;4428884;32;19996;-93
2022/03/24 07:05:16;;;;;;;;;;;;;;;14.80;60.02;100518.41;4429619;32;19981;-94
2022/03/24 07:07:41;;;;;;;;;;;;;;;14.93;60.04;100522.31;4429257;32;19977;-92
2022/03/24 07:10:07;;;;;;;;;;;;;;;15.17;60.05;100514.41;4429602;32;20045;-93
2022/03/24 07:12:32;;;;;;;;;;;;;;;15.28;60.05;100507.81;4429367;32;19988;-93
2022/03/24 07:14:58;;;;;;;;;;;;;;;15.42;60.06;100511.69;4428988;32;20004;-92
2022/03/24 07:17:23;;;;;;;;;;;;;;;15.33;60.06;100508.50;4429395;32;19987;-93
2022/03/24 07:19:48;;;;;;;;;;;;;;;15.35;60.05;100508.44;4442398;32;19985;-93
2022/03/24 07:22:13;;;;;;;;;;;;;;;15.56;60.07;100509.34;4429270;32;20143;-94
2022/03/24 07:24:39;;;;;;;;;;;;;;;15.80;60.08;100510.16;4442146;32;20306;-92
2022/03/24 07:27:04;;;;;;;;;;;;;;;15.75;60.07;100504.25;4428565;32;19992;-93
2022/03/24 07:29:29;;;;;;;;;;;;;;;15.91;60.08;100495.69;4429317;32;20001;-92
2022/03/24 07:31:59;;;;;;;;;;;;;;;16.00;60.10;100499.66;4428959;32;20333;-93
2022/03/24 07:34:25;;;;;;;;;;;;;;;15.95;60.09;100502.50;4429145;32;20335;-93
2022/03/24 07:36:50;;;;;;;;;;;;;;;16.02;60.10;100497.84;4428754;32;20042;-93
2022/03/24 07:39:16;;;;;;;;;;;;;;;16.19;60.10;100505.00;4428348;32;20001;-92
2022/03/24 07:41:41;;;;;;;;;;;;;;;16.33;60.11;100496.53;4428433;32;19997;-92
2022/03/24 07:44:06;;;;;;;;;;;;;;;16.42;60.11;100496.97;4428770;32;19997;-93
2022/03/24 07:46:32;;;;;;;;;;;;;;;16.42;60.11;100490.88;4429041;32;19981;-92
2022/03/24 07:48:57;;;;;;;;;;;;;;;16.52;60.12;100500.03;4428923;32;20056;-92
2022/03/24 07:51:23;;;;;;;;;;;;;;;16.76;60.14;100491.06;4428801;32;20296;-92
2022/03/24 07:53:48;;;;;;;;;;;;;;;16.76;60.13;100496.34;4429123;32;20017;-93
2022/03/24 07:56:14;;;;;;;;;;;;;;;16.76;60.13;100487.59;4441689;32;19997;-93
2022/03/24 07:58:39;;;;;;;;;;;;;;;16.69;60.13;100497.53;4428848;32;20012;-92
2022/03/24 08:01:05;;;;;;;;;;;;;;;16.70;60.13;100493.12;4428549;32;20125;-93
2022/03/24 08:03:31;;;;;;;;;;;;;;;16.81;60.13;100496.16;4428742;32;19953;-92
2022/03/24 08:05:56;;;;;;;;;;;;;;;16.92;60.14;100491.22;4428964;32;19989;-94
2022/03/24 08:08:21;;;;;;;;;;;;;;;16.86;60.13;100484.50;4428708;32;20004;-93
2022/03/24 08:10:47;;;;;;;;;;;;;;;16.91;60.15;100489.53;4428824;32;19988;-92
2022/03/24 08:13:16;;;;;;;;;;;;;;;17.05;60.15;100496.78;4428633;32;19972;-93
2022/03/24 08:15:41;;;;;;;;;;;;;;;17.12;60.15;100479.78;4441970;32;19981;-93
2022/03/24 08:18:08;;;;;;;;;;;;;;;17.10;60.15;100492.16;4428540;32;20283;-92
2022/03/24 08:20:33;;;;;;;;;;;;;;;17.35;60.16;100487.44;4441384;32;19996;-92
2022/03/24 08:22:59;;;;;;;;;;;;;;;17.37;60.17;100485.56;4429039;32;20239;-93
2022/03/24 08:25:33;;;;;;;;;;;;;;;17.60;60.19;100484.47;4428605;32;19993;-92
2022/03/24 08:27:58;;;;;;;;;;;;;;;17.67;60.18;100480.63;4440971;32;20042;-92
2022/03/24 08:30:24;;;;;;;;;;;;;;;17.86;60.19;100474.44;4428265;32;20265;-93
2022/03/24 08:32:49;;;;;;;;;;;;;;;17.98;60.20;100474.69;4428247;32;19981;-92
2022/03/24 08:35:14;;;;;;;;;;;;;;;18.10;60.20;100473.19;4428758;32;19977;-94
2022/03/24 08:37:40;;;;;;;;;;;;;;;18.21;60.20;100469.97;4428418;32;20109;-92
2022/03/24 08:40:05;;;;;;;;;;;;;;;18.47;60.22;100473.91;4428104;32;20005;-93
2022/03/24 08:42:31;;;;;;;;;;;;;;;18.55;60.23;100475.19;4428446;32;19993;-93
2022/03/24 08:44:56;;;;;;;;;;;;;;;18.48;60.23;100480.87;4428614;32;20306;-93
2022/03/24 08:47:21;;;;;;;;;;;;;;;18.53;60.23;100478.84;4428925;32;20019;-94
2022/03/24 08:49:47;;;;;;;;;;;;;;;18.80;60.25;100484.47;4428635;32;19996;-93
2022/03/24 08:52:12;;;;;;;;;;;;;;;19.10;60.26;100471.34;4428617;32;20040;-94
2022/03/24 08:54:38;;;;;;;;;;;;;;;19.33;60.27;100479.69;4428641;32;20346;-94
2022/03/24 08:57:03;;;;;;;;;;;;;;;19.53;60.29;100475.06;4429222;32;19993;-92
2022/03/24 08:59:28;;;;;;;;;;;;;;;19.60;60.29;100473.81;4429388;32;20262;-93
2022/03/24 09:01:54;;;;;;;;;;;;;;;19.44;60.27;100475.59;4429193;32;20003;-92
2022/03/24 09:04:20;;;;;;;;;;;;;;;19.26;60.27;100467.78;4428746;32;19996;-93
2022/03/24 09:06:46;;;;;;;;;;;;;;;19.44;60.28;100463.25;4429299;32;20016;-94
2022/03/24 09:09:11;;;;;;;;;;;;;;;19.73;60.29;100458.94;4428623;32;20045;-92
2022/03/24 09:11:55;;;;;;;;;;;;;;;19.95;60.30;100463.81;4429045;32;19981;-94
2022/03/24 09:14:21;;;;;;;;;;;;;;;20.18;60.32;100463.31;4455199;32;20057;-94
2022/03/24 09:16:46;;;;;;;;;;;;;;;20.28;60.32;100470.66;4429109;32;19985;-94
2022/03/24 09:19:12;;;;;;;;;;;;;;;20.30;60.33;100466.12;4428713;32;20002;-93
2022/03/24 09:21:37;;;;;;;;;;;;;;;20.35;60.32;100469.38;4429113;32;20035;-93
2022/03/24 09:24:02;;;;;;;;;;;;;;;20.45;60.33;100460.78;4429251;32;20013;-93
2022/03/24 09:26:27;;;;;;;;;;;;;;;20.50;60.33;100468.44;4429570;32;20078;-93
2022/03/24 09:28:53;;;;;;;;;;;;;;;20.56;60.34;100456.63;4429739;32;19989;-93
2022/03/24 09:31:37;;;;;;;;;;;;;;;20.73;60.34;100459.06;4429944;32;19995;-94
2022/03/24 09:34:03;;;;;;;;;;;;;;;20.84;60.34;100459.28;4442123;32;19989;-93
2022/03/24 09:36:28;;;;;;;;;;;;;;;20.76;60.35;100466.81;4429202;32;20007;-93
2022/03/24 09:38:54;;;;;;;;;;;;;;;20.79;60.35;100464.81;4428922;32;19997;-94
2022/03/24 09:44:34;;;;;;;;;;;;;;;20.66;60.34;100463.06;4451742;32;19992;-94
2022/03/24 09:46:59;;;;;;;;;;;;;;;20.83;60.35;100460.22;4429380;32;20013;-93
2022/03/24 09:49:24;;;;;;;;;;;;;;;20.98;60.36;100463.66;4429145;32;21192;-93
2022/03/24 09:51:49;;;;;;;;;;;;;;;21.22;60.37;100458.59;4430680;32;20571;-94
2022/03/24 09:54:15;;;;;;;;;;;;;;;21.05;60.36;100449.94;4431087;32;19995;-93
2022/03/24 09:56:40;;;;;;;;;;;;;;;21.08;60.37;100465.66;4431156;32;20348;-94
2022/03/24 09:59:07;;;;;;;;;;;;;;;21.06;60.36;100459.59;4444120;32;19985;-94
2022/03/24 10:01:32;;;;;;;;;;;;;;;21.42;60.38;100459.03;4432061;32;19986;-94
2022/03/24 10:04:15;;;;;;;;;;;;;;;21.65;60.40;100467.25;4430409;32;20052;-93
2022/03/24 10:07:00;;;;;;;;;;;;;;;21.61;60.39;100457.81;4430739;32;20005;-95
2022/03/24 10:12:44;;;;;;;;;;;;;;;21.64;60.40;100455.81;4457596;32;19949;-95
2022/03/24 10:15:18;;;;;;;;;;;;;;;21.74;60.40;100448.94;4430868;32;20011;-94
2022/03/24 10:17:50;;;;;;;;;;;;;;;21.89;60.41;100459.47;4431015;32;20337;-93
2022/03/24 10:20:16;;;;;;;;;;;;;;;22.02;60.42;100449.75;4430629;32;20053;-94
2022/03/24 10:22:54;;;;;;;;;;;;;;;22.00;60.41;100448.97;4429984;32;19973;-93
2022/03/24 10:25:26;;;;;;;;;;;;;;;22.20;60.42;100442.31;4429510;32;19981;-94
2022/03/24 10:28:29;;;;;;;;;;;;;;;22.25;60.43;100448.19;4429617;32;19966;-94
2022/03/24 10:31:03;;;;;;;;;;;;;;;22.16;60.43;100441.69;4442735;32;20005;-93
2022/03/24 10:33:28;;;;;;;;;;;;;;;22.42;60.44;100433.72;4442669;32;20358;-94
2022/03/24 10:36:07;;;;;;;;;;;;;;;22.52;60.44;100442.75;4442521;32;20023;-94
2022/03/24 10:38:33;;;;;;;;;;;;;;;22.43;60.44;100430.97;4429707;32;19966;-93
2022/03/24 10:41:27;;;;;;;;;;;;;;;22.31;60.44;100432.69;4442634;32;20399;-93
2022/03/24 10:43:56;;;;;;;;;;;;;;;22.47;60.45;100436.91;4437447;32;19989;-94
2022/03/24 10:46:26;;;;;;;;;;;;;;;22.63;60.45;100429.56;4430046;32;19995;-94
2022/03/24 10:48:51;;;;;;;;;;;;;;;22.39;60.44;100439.25;4429949;32;19966;-95
2022/03/24 10:51:26;;;;;;;;;;;;;;;22.35;60.43;100438.62;4429618;32;20004;-95
2022/03/24 10:53:53;;;;;;;;;;;;;;;22.53;60.44;100433.84;4429885;32;20029;-93
2022/03/24 10:56:29;;;;;;;;;;;;;;;22.40;60.44;100425.88;4429713;32;19987;-93
2022/03/24 10:58:55;;;;;;;;;;;;;;;22.52;60.44;100434.78;4429678;32;19994;-93
2022/03/24 11:01:21;;;;;;;;;;;;;;;22.51;60.45;100428.62;4441553;32;20699;-93
2022/03/24 11:03:46;;;;;;;;;;;;;;;22.56;60.45;100425.66;4429410;32;19991;-95
2022/03/24 11:06:13;;;;;;;;;;;;;;;22.67;60.45;100423.06;4429402;32;20033;-94
2022/03/24 11:08:39;;;;;;;;;;;;;;;22.80;60.46;100423.91;4429021;32;19994;-93
2022/03/24 11:11:08;;;;;;;;;;;;;;;22.72;60.46;100418.31;4429422;32;19999;-93
2022/03/24 11:13:43;;;;;;;;;;;;;;;22.72;60.46;100415.66;4429313;32;19995;-93
2022/03/24 11:16:08;;;;;;;;;;;;;;;22.66;60.45;100413.41;4429154;32;19989;-93
2022/03/24 11:19:13;;;;;;;;;;;;;;;22.60;60.45;100408.56;4429151;32;19989;-93
2022/03/24 11:21:38;;;;;;;;;;;;;;;22.82;60.46;100416.69;4440118;32;19997;-92
2022/03/24 11:24:04;;;;;;;;;;;;;;;22.97;60.47;100404.13;4441785;32;19988;-93
2022/03/24 11:26:29;;;;;;;;;;;;;;;22.88;60.46;100408.28;4428908;32;20001;-92
2022/03/24 11:28:55;;;;;;;;;;;;;;;22.85;60.46;100403.19;4428575;32;20243;-91
2022/03/24 11:31:20;;;;;;;;;;;;;;;22.80;60.46;100397.34;4428889;32;20348;-93
2022/03/24 11:33:47;;;;;;;;;;;;;;;22.73;60.46;100395.25;4428699;32;20023;-91
2022/03/24 11:36:12;;;;;;;;;;;;;;;22.85;60.46;100391.75;4429132;32;20574;-92
2022/03/24 11:38:38;;;;;;;;;;;;;;;23.16;60.47;100391.16;4441589;32;20056;-91
2022/03/24 11:41:05;;;;;;;;;;;;;;;23.22;60.48;100380.13;4428919;32;20273;-92
2022/03/24 11:43:31;;;;;;;;;;;;;;;23.17;60.49;100378.75;4441718;32;19981;-92
2022/03/24 11:45:59;;;;;;;;;;;;;;;23.33;60.49;100378.44;4428092;32;20036;-93
2022/03/24 11:48:34;;;;;;;;;;;;;;;23.44;60.49;100366.06;4428496;32;19997;-92
2022/03/24 11:51:03;;;;;;;;;;;;;;;23.61;60.50;100371.94;4428327;32;19993;-93
2022/03/24 11:53:28;;;;;;;;;;;;;;;23.40;60.49;100375.22;4429211;32;19953;-94
2022/03/24 11:56:00;;;;;;;;;;;;;;;23.43;60.50;100371.50;4441698;32;20553;-93
2022/03/24 11:59:19;;;;;;;;;;;;;;;23.30;60.48;100376.88;4441516;32;19989;-92
2022/03/24 12:01:19;;;;;;;;;;;;;;;23.37;60.49;100369.28;4438310;32;19981;-92
2022/03/24 12:03:49;;;;;;;;;;;;;;;23.30;60.48;100363.59;4441474;32;20037;-92
2022/03/24 12:06:17;;;;;;;;;;;;;;;23.16;60.47;100367.28;4428993;32;19973;-93
2022/03/24 12:08:45;;;;;;;;;;;;;;;23.22;60.48;100358.03;4428997;32;20007;-93
2022/03/24 12:11:30;;;;;;;;;;;;;;;23.25;60.49;100352.47;4441591;32;20046;-92
2022/03/24 12:13:55;;;;;;;;;;;;;;;23.14;60.47;100355.91;4455787;32;19999;-92
2022/03/24 12:16:23;;;;;;;;;;;;;;;23.03;60.47;100352.37;4442069;32;20016;-92
2022/03/24 12:18:48;;;;;;;;;;;;;;;23.10;60.48;100351.81;4429371;32;20029;-93
2022/03/24 12:21:20;;;;;;;;;;;;;;;23.32;60.49;100355.50;4429361;32;19999;-91
2022/03/24 12:24:18;;;;;;;;;;;;;;;23.39;60.48;100352.25;4429119;32;20726;-93
2022/03/24 12:26:53;;;;;;;;;;;;;;;22.96;60.47;100339.56;4429309;32;19981;-93
2022/03/24 12:29:18;;;;;;;;;;;;;;;23.15;60.47;100347.00;4441651;32;20314;-92
2022/03/24 12:32:00;;;;;;;;;;;;;;;23.10;60.48;100349.16;4441726;32;19984;-94
2022/03/24 12:34:44;;;;;;;;;;;;;;;23.16;60.48;100334.56;4428512;32;20690;-92
2022/03/24 12:37:29;;;;;;;;;;;;;;;23.08;60.47;100331.63;4455411;32;20019;-92
2022/03/24 12:40:04;;;;;;;;;;;;;;;23.15;60.47;100327.56;4441382;32;19989;-92
2022/03/24 12:42:38;;;;;;;;;;;;;;;22.92;60.46;100334.56;4441682;32;19997;-93
2022/03/24 12:45:03;;;;;;;;;;;;;;;22.88;60.46;100331.31;4428572;32;19996;-93
2022/03/24 12:47:33;;;;;;;;;;;;;;;23.07;60.47;100329.94;4428635;32;19983;-94
2022/03/24 12:49:59;;;;;;;;;;;;;;;22.86;60.47;100335.87;4426782;32;20013;-92
2022/03/24 12:52:43;;;;;;;;;;;;;;;22.85;60.46;100325.37;4438289;32;20005;-91
2022/03/24 12:58:14;;;;;;;;;;;;;;;22.95;60.47;100316.62;4408951;32;20041;-94
2022/03/24 13:00:41;;;;;;;;;;;;;;;22.84;60.46;100319.22;4439038;32;19989;-92
2022/03/24 13:03:06;;;;;;;;;;;;;;;23.03;60.47;100307.25;4438829;32;20065;-92
2022/03/24 13:05:32;;;;;;;;;;;;;;;22.98;60.47;100310.25;4438494;32;20254;-92
2022/03/24 13:07:58;;;;;;;;;;;;;;;23.16;60.47;100308.84;4438381;32;20305;-92